Time;durP1;ratioP1;P1;durP2;ratioP2;P2;SDS_P1;SDS_P2;PMS_P1;PMS_P2;Temp;Humidity;BMP_temperature;BMP_pressure;BME280_temperature;BME280_humidity;BME280_pressure;Samples;Min_cycle;Max_cycle;Signal;HPM_P1;HPM_P2
2024/03/27 00:00:11;;;;;;;;;;;;;;;;;;1041794;28;19909;-75
2024/03/27 00:00:41;;;;;;;;;;;;;;;;;;1045968;28;20456;-73
2024/03/27 00:01:12;;;;;;;;;;;;;;;;;;1046663;28;19909;-74
2024/03/27 00:01:42;;;;;;;;;;;;;;;;;;1048383;28;19908;-74
2024/03/27 00:02:13;;;;;;;;;;;;;;;;;;1048264;28;19912;-74
2024/03/27 00:02:43;;;;;;;;;;;;;;;;;;1048700;28;19915;-74
2024/03/27 00:03:13;;;;;;;;;;;;;;;;;;1048355;28;20451;-75
2024/03/27 00:03:43;;;;;;;;;;;;;;;;;;1045845;28;19908;-75
2024/03/27 00:04:14;;;;;;;;;;;;;;;;;;1046924;28;20038;-74
2024/03/27 00:04:44;;;;;;;;;;;;;;;;;;1045899;28;20005;-74
2024/03/27 00:05:14;;;;;;;;;;;;;;;;;;1045827;28;19974;-74
2024/03/27 00:05:44;;;;;;;;;;;;;;;;;;1049199;28;19908;-74
2024/03/27 00:06:15;;;;;;;;;;;;;;;;;;1045661;28;19909;-74
2024/03/27 00:06:45;;;;;;;;;;;;;;;;;;1046481;28;19909;-74
2024/03/27 00:07:16;;;;;;;;;;;;;;;;;;1041976;28;20066;-74
2024/03/27 00:07:47;;;;;;;;;;;;;;;;;;1042018;28;19946;-75
2024/03/27 00:08:17;;;;;;;;;;;;;;;;;;1040803;28;19913;-74
2024/03/27 00:08:47;;;;;;;;;;;;;;;;;;1042211;28;19909;-74
2024/03/27 00:09:17;;;;;;;;;;;;;;;;;;1041999;28;20355;-74
2024/03/27 00:09:48;;;;;;;;;;;;;;;;;;1037907;28;19976;-75
2024/03/27 00:10:18;;;;;;;;;;;;;;;;;;1037372;28;19908;-74
2024/03/27 00:10:49;;;;;;;;;;;;;;;;;;1037474;28;19906;-75
2024/03/27 00:11:20;;;;;;;;;;;;;;;;;;1041771;28;19915;-75
2024/03/27 00:11:51;;;;;;;;;;;;;;;;;;1041882;28;20287;-75
2024/03/27 00:12:21;;;;;;;;;;;;;;;;;;1043979;28;20011;-75
2024/03/27 00:12:51;;;;;;;;;;;;;;;;;;1048361;28;20375;-75
2024/03/27 00:13:21;;;;;;;;;;;;;;;;;;1047807;28;19908;-74
2024/03/27 00:13:52;;;;;;;;;;;;;;;;;;1044044;28;19913;-75
2024/03/27 00:14:22;;;;;;;;;;;;;;;;;;1042796;28;19909;-74
2024/03/27 00:14:52;;;;;;;;;;;;;;;;;;1044056;28;19947;-75
2024/03/27 00:15:23;;;;;;;;;;;;;;;;;;1043714;28;19999;-74
2024/03/27 00:15:53;;;;;;;;;;;;;;;;;;1045984;28;19912;-75
2024/03/27 00:16:23;;;;;;;;;;;;;;;;;;1048194;28;19915;-74
2024/03/27 00:16:53;;;;;;;;;;;;;;;;;;1048594;28;20260;-74
2024/03/27 00:17:24;;;;;;;;;;;;;;;;;;1045545;28;20366;-75
2024/03/27 00:17:54;;;;;;;;;;;;;;;;;;1045849;28;19956;-74
2024/03/27 00:18:24;;;;;;;;;;;;;;;;;;1045666;28;19998;-74
2024/03/27 00:18:54;;;;;;;;;;;;;;;;;;1046675;28;20006;-75
2024/03/27 00:19:25;;;;;;;;;;;;;;;;;;1048246;28;20323;-75
2024/03/27 00:19:55;;;;;;;;;;;;;;;;;;1044871;28;20011;-74
2024/03/27 00:20:25;;;;;;;;;;;;;;;;;;1043377;28;20015;-75
2024/03/27 00:20:56;;;;;;;;;;;;;;;;;;1044093;28;19908;-74
2024/03/27 00:21:26;;;;;;;;;;;;;;;;;;1041631;28;20430;-74
2024/03/27 00:21:57;;;;;;;;;;;;;;;;;;1045970;28;20587;-74
2024/03/27 00:22:27;;;;;;;;;;;;;;;;;;1045564;28;20478;-75
2024/03/27 00:22:57;;;;;;;;;;;;;;;;;;1044615;28;19915;-75
2024/03/27 00:23:28;;;;;;;;;;;;;;;;;;1044270;28;19908;-75
2024/03/27 00:23:58;;;;;;;;;;;;;;;;;;1044754;28;19975;-75
2024/03/27 00:24:31;;;;;;;;;;;;;;;;;;1040316;28;19916;-75
2024/03/27 00:25:01;;;;;;;;;;;;;;;;;;1041731;28;19916;-75
2024/03/27 00:25:31;;;;;;;;;;;;;;;;;;1042627;28;19915;-74
2024/03/27 00:26:01;;;;;;;;;;;;;;;;;;1046745;28;19919;-74
2024/03/27 00:26:32;;;;;;;;;;;;;;;;;;1049083;28;19978;-75
2024/03/27 00:27:03;;;;;;;;;;;;;;;;;;1045266;28;19909;-75
2024/03/27 00:27:33;;;;;;;;;;;;;;;;;;1038206;28;19909;-75
2024/03/27 00:28:04;;;;;;;;;;;;;;;;;;1042858;28;19909;-74
2024/03/27 00:28:34;;;;;;;;;;;;;;;;;;1044572;28;19908;-74
2024/03/27 00:29:04;;;;;;;;;;;;;;;;;;1044867;28;19915;-74
2024/03/27 00:29:34;;;;;;;;;;;;;;;;;;1043921;28;19909;-74
2024/03/27 00:30:05;;;;;;;;;;;;;;;;;;1050565;28;19965;-74
2024/03/27 00:30:35;;;;;;;;;;;;;;;;;;1051099;28;19908;-75
2024/03/27 00:31:05;;;;;;;;;;;;;;;;;;1047618;28;19908;-75
2024/03/27 00:31:36;;;;;;;;;;;;;;;;;;1047564;28;19913;-74
2024/03/27 00:32:06;;;;;;;;;;;;;;;;;;1046891;28;19915;-74
2024/03/27 00:32:36;;;;;;;;;;;;;;;;;;1046831;28;20504;-75
2024/03/27 00:33:06;;;;;;;;;;;;;;;;;;1044657;28;19942;-75
2024/03/27 00:33:37;;;;;;;;;;;;;;;;;;1039168;28;20407;-74
2024/03/27 00:34:07;;;;;;;;;;;;;;;;;;1042094;28;19909;-75
2024/03/27 00:34:37;;;;;;;;;;;;;;;;;;1046641;28;20361;-75
2024/03/27 00:35:08;;;;;;;;;;;;;;;;;;1046284;28;19958;-75
2024/03/27 00:35:38;;;;;;;;;;;;;;;;;;1050485;28;20011;-74
2024/03/27 00:36:08;;;;;;;;;;;;;;;;;;1045291;28;19999;-74
2024/03/27 00:36:38;;;;;;;;;;;;;;;;;;1044744;28;20376;-74
2024/03/27 00:37:09;;;;;;;;;;;;;;;;;;1042457;28;19913;-74
2024/03/27 00:37:39;;;;;;;;;;;;;;;;;;1041558;28;20268;-74
2024/03/27 00:38:09;;;;;;;;;;;;;;;;;;1046851;28;20350;-75
2024/03/27 00:38:39;;;;;;;;;;;;;;;;;;1042360;28;19913;-74
2024/03/27 00:39:11;;;;;;;;;;;;;;;;;;1047227;28;19912;-75
2024/03/27 00:39:41;;;;;;;;;;;;;;;;;;1046879;28;19908;-74
2024/03/27 00:40:12;;;;;;;;;;;;;;;;;;1046390;28;19913;-74
2024/03/27 00:40:42;;;;;;;;;;;;;;;;;;1046430;28;19943;-74
2024/03/27 00:41:13;;;;;;;;;;;;;;;;;;1044516;28;19970;-75
2024/03/27 00:41:43;;;;;;;;;;;;;;;;;;1048716;28;19908;-74
2024/03/27 00:42:14;;;;;;;;;;;;;;;;;;1048632;28;19935;-74
2024/03/27 00:42:44;;;;;;;;;;;;;;;;;;1048932;28;19908;-74
2024/03/27 00:43:14;;;;;;;;;;;;;;;;;;1049044;28;20335;-74
2024/03/27 00:43:44;;;;;;;;;;;;;;;;;;1049383;28;19993;-74
2024/03/27 00:44:14;;;;;;;;;;;;;;;;;;1050171;28;19908;-74
2024/03/27 00:44:45;;;;;;;;;;;;;;;;;;1051512;28;20010;-75
2024/03/27 00:45:15;;;;;;;;;;;;;;;;;;1046628;28;19908;-74
2024/03/27 00:45:46;;;;;;;;;;;;;;;;;;1046388;28;19912;-75
2024/03/27 00:46:16;;;;;;;;;;;;;;;;;;1046284;28;19971;-74
2024/03/27 00:46:46;;;;;;;;;;;;;;;;;;1046469;28;19958;-74
2024/03/27 00:47:16;;;;;;;;;;;;;;;;;;1044591;28;19958;-75
2024/03/27 00:47:47;;;;;;;;;;;;;;;;;;1040946;28;21112;-74
2024/03/27 00:48:17;;;;;;;;;;;;;;;;;;1044590;28;19916;-74
2024/03/27 00:48:47;;;;;;;;;;;;;;;;;;1044683;28;19909;-74
2024/03/27 00:49:17;;;;;;;;;;;;;;;;;;1044638;28;19915;-74
2024/03/27 00:49:47;;;;;;;;;;;;;;;;;;1044661;28;19909;-74
2024/03/27 00:50:18;;;;;;;;;;;;;;;;;;1046742;28;19959;-74
2024/03/27 00:50:48;;;;;;;;;;;;;;;;;;1047121;28;19904;-74
2024/03/27 00:51:18;;;;;;;;;;;;;;;;;;1045763;28;19908;-74
2024/03/27 00:51:48;;;;;;;;;;;;;;;;;;1051390;28;19908;-74
2024/03/27 00:52:18;;;;;;;;;;;;;;;;;;1046785;28;20334;-74
2024/03/27 00:52:49;;;;;;;;;;;;;;;;;;1046827;28;19912;-74
2024/03/27 00:53:19;;;;;;;;;;;;;;;;;;1044536;28;19908;-74
2024/03/27 00:53:49;;;;;;;;;;;;;;;;;;1044412;28;19954;-75
2024/03/27 00:54:20;;;;;;;;;;;;;;;;;;1044435;28;19913;-75
2024/03/27 00:54:50;;;;;;;;;;;;;;;;;;1044945;28;20453;-74
2024/03/27 00:55:20;;;;;;;;;;;;;;;;;;1046646;28;19908;-75
2024/03/27 00:55:51;;;;;;;;;;;;;;;;;;1046848;28;20452;-74
2024/03/27 00:56:22;;;;;;;;;;;;;;;;;;1051197;28;19912;-74
2024/03/27 00:56:52;;;;;;;;;;;;;;;;;;1045692;28;19958;-74
2024/03/27 00:57:22;;;;;;;;;;;;;;;;;;1044306;28;19970;-74
2024/03/27 00:57:53;;;;;;;;;;;;;;;;;;1044673;28;19908;-75
2024/03/27 00:58:23;;;;;;;;;;;;;;;;;;1043379;28;19955;-74
2024/03/27 00:58:53;;;;;;;;;;;;;;;;;;1044591;28;20015;-74
2024/03/27 00:59:25;;;;;;;;;;;;;;;;;;1044352;28;19909;-75
2024/03/27 00:59:58;;;;;;;;;;;;;;;;;;1041617;28;19909;-75
2024/03/27 01:00:28;;;;;;;;;;;;;;;;;;1041009;28;20453;-74
2024/03/27 01:00:58;;;;;;;;;;;;;;;;;;1038802;28;19995;-74
2024/03/27 01:01:28;;;;;;;;;;;;;;;;;;1038613;28;19948;-75
2024/03/27 01:02:01;;;;;;;;;;;;;;;;;;1041278;28;19913;-75
2024/03/27 01:02:31;;;;;;;;;;;;;;;;;;1046517;28;19908;-74
2024/03/27 01:03:01;;;;;;;;;;;;;;;;;;1050068;28;20061;-74
2024/03/27 01:03:31;;;;;;;;;;;;;;;;;;1048733;28;19912;-75
2024/03/27 01:04:02;;;;;;;;;;;;;;;;;;1051877;28;19915;-75
2024/03/27 01:04:32;;;;;;;;;;;;;;;;;;1051315;28;19908;-75
2024/03/27 01:05:02;;;;;;;;;;;;;;;;;;1051262;28;19908;-74
2024/03/27 01:05:34;;;;;;;;;;;;;;;;;;1050986;28;20356;-75
2024/03/27 01:06:04;;;;;;;;;;;;;;;;;;1044279;28;19934;-75
2024/03/27 01:06:34;;;;;;;;;;;;;;;;;;1044232;28;19935;-74
2024/03/27 01:07:05;;;;;;;;;;;;;;;;;;1042746;28;19916;-75
2024/03/27 01:07:35;;;;;;;;;;;;;;;;;;1042367;28;19909;-74
2024/03/27 01:08:05;;;;;;;;;;;;;;;;;;1043800;28;20401;-75
2024/03/27 01:08:35;;;;;;;;;;;;;;;;;;1046691;28;19908;-75
2024/03/27 01:09:06;;;;;;;;;;;;;;;;;;1040423;28;19909;-75
2024/03/27 01:09:37;;;;;;;;;;;;;;;;;;1038434;28;19952;-75
2024/03/27 01:10:08;;;;;;;;;;;;;;;;;;1044106;28;20494;-74
2024/03/27 01:10:38;;;;;;;;;;;;;;;;;;1044842;28;20003;-74
2024/03/27 01:11:08;;;;;;;;;;;;;;;;;;1044870;28;19909;-75
2024/03/27 01:11:39;;;;;;;;;;;;;;;;;;1045347;28;20340;-75
2024/03/27 01:12:09;;;;;;;;;;;;;;;;;;1048265;28;19908;-75
2024/03/27 01:12:39;;;;;;;;;;;;;;;;;;1047825;28;19912;-75
2024/03/27 01:13:10;;;;;;;;;;;;;;;;;;1043167;28;20004;-74
2024/03/27 01:13:40;;;;;;;;;;;;;;;;;;1046802;28;20254;-74
2024/03/27 01:14:10;;;;;;;;;;;;;;;;;;1043306;28;19908;-75
2024/03/27 01:14:43;;;;;;;;;;;;;;;;;;1038306;28;19919;-74
2024/03/27 01:15:13;;;;;;;;;;;;;;;;;;1042038;28;20007;-74
2024/03/27 01:15:43;;;;;;;;;;;;;;;;;;1043317;28;19928;-75
2024/03/27 01:16:14;;;;;;;;;;;;;;;;;;1042248;28;19909;-74
2024/03/27 01:16:44;;;;;;;;;;;;;;;;;;1036262;28;19909;-74
2024/03/27 01:17:14;;;;;;;;;;;;;;;;;;1035590;28;19920;-74
2024/03/27 01:17:46;;;;;;;;;;;;;;;;;;1040152;28;19909;-75
2024/03/27 01:18:16;;;;;;;;;;;;;;;;;;1043294;28;19908;-75
2024/03/27 01:18:46;;;;;;;;;;;;;;;;;;1045695;28;19912;-75
2024/03/27 01:19:17;;;;;;;;;;;;;;;;;;1042177;28;20375;-74
2024/03/27 01:19:47;;;;;;;;;;;;;;;;;;1044378;28;19908;-75
2024/03/27 01:20:18;;;;;;;;;;;;;;;;;;1046046;28;19963;-75
2024/03/27 01:20:48;;;;;;;;;;;;;;;;;;1047185;28;19992;-75
2024/03/27 01:21:20;;;;;;;;;;;;;;;;;;1035874;28;19976;-75
2024/03/27 01:21:50;;;;;;;;;;;;;;;;;;1047601;28;19912;-74
2024/03/27 01:22:20;;;;;;;;;;;;;;;;;;1046126;28;20253;-74
2024/03/27 01:22:51;;;;;;;;;;;;;;;;;;1044922;28;20038;-73
2024/03/27 01:23:21;;;;;;;;;;;;;;;;;;1045576;28;19917;-74
2024/03/27 01:23:51;;;;;;;;;;;;;;;;;;1042491;28;19960;-74
2024/03/27 01:24:21;;;;;;;;;;;;;;;;;;1048342;28;19913;-74
2024/03/27 01:24:52;;;;;;;;;;;;;;;;;;1050023;28;20002;-75
2024/03/27 01:25:22;;;;;;;;;;;;;;;;;;1041855;28;19913;-74
2024/03/27 01:25:52;;;;;;;;;;;;;;;;;;1041779;28;19943;-74
2024/03/27 01:26:23;;;;;;;;;;;;;;;;;;1043206;28;20129;-74
2024/03/27 01:26:53;;;;;;;;;;;;;;;;;;1042169;28;19950;-74
2024/03/27 01:27:23;;;;;;;;;;;;;;;;;;1043075;28;19912;-76
2024/03/27 01:27:53;;;;;;;;;;;;;;;;;;1043072;28;19912;-75
2024/03/27 01:28:24;;;;;;;;;;;;;;;;;;1039596;28;20399;-74
2024/03/27 01:28:54;;;;;;;;;;;;;;;;;;1042793;28;19920;-74
2024/03/27 01:29:24;;;;;;;;;;;;;;;;;;1044322;28;19936;-76
2024/03/27 01:29:54;;;;;;;;;;;;;;;;;;1039947;28;19951;-75
2024/03/27 01:30:25;;;;;;;;;;;;;;;;;;1039214;28;19913;-76
2024/03/27 01:30:55;;;;;;;;;;;;;;;;;;1036683;28;19924;-75
2024/03/27 01:31:25;;;;;;;;;;;;;;;;;;1040617;28;20018;-75
2024/03/27 01:31:55;;;;;;;;;;;;;;;;;;1041190;28;19908;-75
2024/03/27 01:32:26;;;;;;;;;;;;;;;;;;1044044;28;19912;-75
2024/03/27 01:32:56;;;;;;;;;;;;;;;;;;1044556;28;19918;-75
2024/03/27 01:33:26;;;;;;;;;;;;;;;;;;1043208;28;19913;-74
2024/03/27 01:33:57;;;;;;;;;;;;;;;;;;1047423;28;19936;-74
2024/03/27 01:34:27;;;;;;;;;;;;;;;;;;1044107;28;20269;-74
2024/03/27 01:34:57;;;;;;;;;;;;;;;;;;1043216;28;19955;-75
2024/03/27 01:35:27;;;;;;;;;;;;;;;;;;1042170;28;19913;-75
2024/03/27 01:35:58;;;;;;;;;;;;;;;;;;1046331;28;19912;-75
2024/03/27 01:36:28;;;;;;;;;;;;;;;;;;1045934;28;19955;-75
2024/03/27 01:36:58;;;;;;;;;;;;;;;;;;1041962;28;19918;-74
2024/03/27 01:37:28;;;;;;;;;;;;;;;;;;1042452;28;20007;-74
2024/03/27 01:37:58;;;;;;;;;;;;;;;;;;1041935;28;19919;-75
2024/03/27 01:38:29;;;;;;;;;;;;;;;;;;1044267;28;19922;-74
2024/03/27 01:38:59;;;;;;;;;;;;;;;;;;1043976;28;19912;-74
2024/03/27 01:39:29;;;;;;;;;;;;;;;;;;1043531;28;19943;-74
2024/03/27 01:39:59;;;;;;;;;;;;;;;;;;1044886;28;19977;-75
2024/03/27 01:40:30;;;;;;;;;;;;;;;;;;1042298;28;19915;-75
2024/03/27 01:41:00;;;;;;;;;;;;;;;;;;1045432;28;19912;-75
2024/03/27 01:41:30;;;;;;;;;;;;;;;;;;1044682;28;19908;-75
2024/03/27 01:42:00;;;;;;;;;;;;;;;;;;1038919;28;19920;-75
2024/03/27 01:42:31;;;;;;;;;;;;;;;;;;1038146;28;19920;-74
2024/03/27 01:43:01;;;;;;;;;;;;;;;;;;1043125;28;20439;-75
2024/03/27 01:43:31;;;;;;;;;;;;;;;;;;1037520;28;19923;-76
2024/03/27 01:44:01;;;;;;;;;;;;;;;;;;1039451;28;19913;-75
2024/03/27 01:44:31;;;;;;;;;;;;;;;;;;1039310;28;19912;-75
2024/03/27 01:45:02;;;;;;;;;;;;;;;;;;1039308;28;20362;-75
2024/03/27 01:45:32;;;;;;;;;;;;;;;;;;1036507;28;19960;-75
2024/03/27 01:46:02;;;;;;;;;;;;;;;;;;1037124;28;20395;-75
2024/03/27 01:46:32;;;;;;;;;;;;;;;;;;1036485;28;20359;-75
2024/03/27 01:47:03;;;;;;;;;;;;;;;;;;1040084;28;19913;-75
2024/03/27 01:47:33;;;;;;;;;;;;;;;;;;1042942;28;19947;-75
2024/03/27 01:48:03;;;;;;;;;;;;;;;;;;1044946;28;19931;-75
2024/03/27 01:48:33;;;;;;;;;;;;;;;;;;1041696;28;19979;-75
2024/03/27 01:49:04;;;;;;;;;;;;;;;;;;1034896;28;19979;-74
2024/03/27 01:49:34;;;;;;;;;;;;;;;;;;1035289;28;19913;-76
2024/03/27 01:50:05;;;;;;;;;;;;;;;;;;1038042;28;19920;-74
2024/03/27 01:50:35;;;;;;;;;;;;;;;;;;1045121;28;19920;-74
2024/03/27 01:51:05;;;;;;;;;;;;;;;;;;1039008;28;19982;-74
2024/03/27 01:51:35;;;;;;;;;;;;;;;;;;1041073;28;19928;-76
2024/03/27 01:52:06;;;;;;;;;;;;;;;;;;1041469;28;20478;-75
2024/03/27 01:52:36;;;;;;;;;;;;;;;;;;1039989;28;20407;-75
2024/03/27 01:53:06;;;;;;;;;;;;;;;;;;1042523;28;20323;-75
2024/03/27 01:53:37;;;;;;;;;;;;;;;;;;1044489;28;19954;-75
2024/03/27 01:54:07;;;;;;;;;;;;;;;;;;1042390;28;20411;-75
2024/03/27 01:54:37;;;;;;;;;;;;;;;;;;1038096;28;19959;-75
2024/03/27 01:55:07;;;;;;;;;;;;;;;;;;1041596;28;19917;-75
2024/03/27 01:55:38;;;;;;;;;;;;;;;;;;1040277;28;19924;-74
2024/03/27 01:56:08;;;;;;;;;;;;;;;;;;1036108;28;21618;-75
2024/03/27 01:56:38;;;;;;;;;;;;;;;;;;1042458;28;20711;-75
2024/03/27 01:57:08;;;;;;;;;;;;;;;;;;1039873;28;19913;-75
2024/03/27 01:57:38;;;;;;;;;;;;;;;;;;1041126;28;19923;-75
2024/03/27 01:58:09;;;;;;;;;;;;;;;;;;1041210;28;19916;-75
2024/03/27 01:58:39;;;;;;;;;;;;;;;;;;1042535;28;20610;-76
2024/03/27 01:59:09;;;;;;;;;;;;;;;;;;1042571;28;20296;-76
2024/03/27 01:59:40;;;;;;;;;;;;;;;;;;1043920;28;20363;-75
2024/03/27 02:00:10;;;;;;;;;;;;;;;;;;1048541;28;20314;-75
2024/03/27 02:00:40;;;;;;;;;;;;;;;;;;1046949;28;20402;-75
2024/03/27 02:01:10;;;;;;;;;;;;;;;;;;1047669;28;20383;-76
2024/03/27 02:01:41;;;;;;;;;;;;;;;;;;1044206;28;19916;-75
2024/03/27 02:02:11;;;;;;;;;;;;;;;;;;1041866;28;20002;-74
2024/03/27 02:02:41;;;;;;;;;;;;;;;;;;1044434;28;19917;-74
2024/03/27 02:03:11;;;;;;;;;;;;;;;;;;1042955;28;20372;-74
2024/03/27 02:03:41;;;;;;;;;;;;;;;;;;1039324;28;19917;-75
2024/03/27 02:04:12;;;;;;;;;;;;;;;;;;1040942;28;20138;-75
2024/03/27 02:04:42;;;;;;;;;;;;;;;;;;1044211;28;19913;-74
2024/03/27 02:05:12;;;;;;;;;;;;;;;;;;1042072;28;20387;-74
2024/03/27 02:05:42;;;;;;;;;;;;;;;;;;1046134;28;19916;-74
2024/03/27 02:06:13;;;;;;;;;;;;;;;;;;1044697;28;19912;-74
2024/03/27 02:06:43;;;;;;;;;;;;;;;;;;1047415;28;19912;-74
2024/03/27 02:07:14;;;;;;;;;;;;;;;;;;1047447;28;19919;-74
2024/03/27 02:07:44;;;;;;;;;;;;;;;;;;1048807;28;19919;-74
2024/03/27 02:08:14;;;;;;;;;;;;;;;;;;1044656;28;19916;-75
2024/03/27 02:08:44;;;;;;;;;;;;;;;;;;1042779;28;19913;-75
2024/03/27 02:09:15;;;;;;;;;;;;;;;;;;1041019;28;19920;-75
2024/03/27 02:09:45;;;;;;;;;;;;;;;;;;1040403;28;19908;-74
2024/03/27 02:10:15;;;;;;;;;;;;;;;;;;1037336;28;19913;-75
2024/03/27 02:10:45;;;;;;;;;;;;;;;;;;1033759;28;19913;-74
2024/03/27 02:11:16;;;;;;;;;;;;;;;;;;1032058;28;20726;-74
2024/03/27 02:11:46;;;;;;;;;;;;;;;;;;1030893;28;19948;-75
2024/03/27 02:12:16;;;;;;;;;;;;;;;;;;1034104;28;19971;-74
2024/03/27 02:12:46;;;;;;;;;;;;;;;;;;1030106;28;20737;-74
2024/03/27 02:13:17;;;;;;;;;;;;;;;;;;1036906;28;20028;-76
2024/03/27 02:13:47;;;;;;;;;;;;;;;;;;1038036;28;20388;-74
2024/03/27 02:14:18;;;;;;;;;;;;;;;;;;1036666;28;19913;-75
2024/03/27 02:14:48;;;;;;;;;;;;;;;;;;1042075;28;19927;-75
2024/03/27 02:15:18;;;;;;;;;;;;;;;;;;1041465;28;19967;-75
2024/03/27 02:15:48;;;;;;;;;;;;;;;;;;1044523;28;19917;-76
2024/03/27 02:16:20;;;;;;;;;;;;;;;;;;1040634;28;19916;-75
2024/03/27 02:16:50;;;;;;;;;;;;;;;;;;1039422;28;19917;-75
2024/03/27 02:17:20;;;;;;;;;;;;;;;;;;1040515;28;19986;-75
2024/03/27 02:17:51;;;;;;;;;;;;;;;;;;1041177;28;19953;-76
2024/03/27 02:18:21;;;;;;;;;;;;;;;;;;1043495;28;20509;-75
2024/03/27 02:18:52;;;;;;;;;;;;;;;;;;1046360;28;20337;-75
2024/03/27 02:19:22;;;;;;;;;;;;;;;;;;1046825;28;19912;-76
2024/03/27 02:19:52;;;;;;;;;;;;;;;;;;1045543;28;19912;-76
2024/03/27 02:20:23;;;;;;;;;;;;;;;;;;1047456;28;20318;-76
2024/03/27 02:20:53;;;;;;;;;;;;;;;;;;1043712;28;20289;-76
2024/03/27 02:21:23;;;;;;;;;;;;;;;;;;1046187;28;19944;-75
2024/03/27 02:21:53;;;;;;;;;;;;;;;;;;1042358;28;20462;-75
2024/03/27 02:22:24;;;;;;;;;;;;;;;;;;1040651;28;20341;-75
2024/03/27 02:22:54;;;;;;;;;;;;;;;;;;1038726;28;19971;-75
2024/03/27 02:23:24;;;;;;;;;;;;;;;;;;1038047;28;20004;-75
2024/03/27 02:23:54;;;;;;;;;;;;;;;;;;1039556;28;19920;-75
2024/03/27 02:24:25;;;;;;;;;;;;;;;;;;1038134;28;19983;-75
2024/03/27 02:24:55;;;;;;;;;;;;;;;;;;1037156;28;20475;-75
2024/03/27 02:25:25;;;;;;;;;;;;;;;;;;1040467;28;20448;-75
2024/03/27 02:25:55;;;;;;;;;;;;;;;;;;1042945;28;20377;-75
2024/03/27 02:26:25;;;;;;;;;;;;;;;;;;1042271;28;20043;-74
2024/03/27 02:26:56;;;;;;;;;;;;;;;;;;1040467;28;19916;-75
2024/03/27 02:27:26;;;;;;;;;;;;;;;;;;1035611;28;20334;-75
2024/03/27 02:27:56;;;;;;;;;;;;;;;;;;1035810;28;20055;-74
2024/03/27 02:28:26;;;;;;;;;;;;;;;;;;1037271;28;20889;-75
2024/03/27 02:28:57;;;;;;;;;;;;;;;;;;1035538;28;20434;-75
2024/03/27 02:29:27;;;;;;;;;;;;;;;;;;1038406;28;20524;-75
2024/03/27 02:29:57;;;;;;;;;;;;;;;;;;1039064;28;19948;-75
2024/03/27 02:30:28;;;;;;;;;;;;;;;;;;1038134;28;19909;-75
2024/03/27 02:30:58;;;;;;;;;;;;;;;;;;1037532;28;20001;-76
2024/03/27 02:31:28;;;;;;;;;;;;;;;;;;1041876;28;19999;-76
2024/03/27 02:31:58;;;;;;;;;;;;;;;;;;1043664;28;20353;-74
2024/03/27 02:32:28;;;;;;;;;;;;;;;;;;1042710;28;20003;-75
2024/03/27 02:32:59;;;;;;;;;;;;;;;;;;1038989;28;19959;-76
2024/03/27 02:33:29;;;;;;;;;;;;;;;;;;1039510;28;19912;-77
2024/03/27 02:33:59;;;;;;;;;;;;;;;;;;1038989;28;20027;-76
2024/03/27 02:34:30;;;;;;;;;;;;;;;;;;1039542;28;20088;-76
2024/03/27 02:35:00;;;;;;;;;;;;;;;;;;1037214;28;20063;-77
2024/03/27 02:35:31;;;;;;;;;;;;;;;;;;1038474;28;19964;-77
2024/03/27 02:36:01;;;;;;;;;;;;;;;;;;1039318;28;20374;-76
2024/03/27 02:36:31;;;;;;;;;;;;;;;;;;1035922;28;19917;-75
2024/03/27 02:37:01;;;;;;;;;;;;;;;;;;1037219;28;19913;-74
2024/03/27 02:37:32;;;;;;;;;;;;;;;;;;1038456;28;19917;-75
2024/03/27 02:38:02;;;;;;;;;;;;;;;;;;1039428;28;20291;-76
2024/03/27 02:38:32;;;;;;;;;;;;;;;;;;1037952;28;20432;-76
2024/03/27 02:39:03;;;;;;;;;;;;;;;;;;1040491;28;19917;-76
2024/03/27 02:39:33;;;;;;;;;;;;;;;;;;1040714;28;19913;-75
2024/03/27 02:40:03;;;;;;;;;;;;;;;;;;1041657;28;19913;-75
2024/03/27 02:40:33;;;;;;;;;;;;;;;;;;1040601;28;19953;-76
2024/03/27 02:41:03;;;;;;;;;;;;;;;;;;1039154;28;19996;-75
2024/03/27 02:41:34;;;;;;;;;;;;;;;;;;1037882;28;19968;-76
2024/03/27 02:42:04;;;;;;;;;;;;;;;;;;1034258;28;20328;-75
2024/03/27 02:42:34;;;;;;;;;;;;;;;;;;1035818;28;19913;-75
2024/03/27 02:43:04;;;;;;;;;;;;;;;;;;1037728;28;19917;-75
2024/03/27 02:43:35;;;;;;;;;;;;;;;;;;1038122;28;19920;-75
2024/03/27 02:44:06;;;;;;;;;;;;;;;;;;1038455;28;19917;-74
2024/03/27 02:44:36;;;;;;;;;;;;;;;;;;1040017;28;21624;-74
2024/03/27 02:45:08;;;;;;;;;;;;;;;;;;1038447;28;20416;-74
2024/03/27 02:45:42;;;;;;;;;;;;;;;;;;1038851;28;19917;-75
2024/03/27 02:46:13;;;;;;;;;;;;;;;;;;1041650;28;19982;-75
2024/03/27 02:46:43;;;;;;;;;;;;;;;;;;1037081;28;20015;-75
2024/03/27 02:47:14;;;;;;;;;;;;;;;;;;1030415;28;19917;-75
2024/03/27 02:47:44;;;;;;;;;;;;;;;;;;1028742;28;20684;-74
2024/03/27 02:48:14;;;;;;;;;;;;;;;;;;1029662;28;20012;-75
2024/03/27 02:48:45;;;;;;;;;;;;;;;;;;1033044;28;20323;-75
2024/03/27 02:49:15;;;;;;;;;;;;;;;;;;1038950;28;19912;-74
2024/03/27 02:49:45;;;;;;;;;;;;;;;;;;1040183;28;19924;-74
2024/03/27 02:50:16;;;;;;;;;;;;;;;;;;1040409;28;20005;-74
2024/03/27 02:50:46;;;;;;;;;;;;;;;;;;1037176;28;19913;-75
2024/03/27 02:51:16;;;;;;;;;;;;;;;;;;1036037;28;20474;-75
2024/03/27 02:51:47;;;;;;;;;;;;;;;;;;1038124;28;19962;-75
2024/03/27 02:52:17;;;;;;;;;;;;;;;;;;1036501;28;19909;-75
2024/03/27 02:52:47;;;;;;;;;;;;;;;;;;1041367;28;20341;-75
2024/03/27 02:53:18;;;;;;;;;;;;;;;;;;1038973;28;19920;-75
2024/03/27 02:53:48;;;;;;;;;;;;;;;;;;1035462;28;19913;-75
2024/03/27 02:54:18;;;;;;;;;;;;;;;;;;1039478;28;20015;-75
2024/03/27 02:54:48;;;;;;;;;;;;;;;;;;1034708;28;20054;-75
2024/03/27 02:55:19;;;;;;;;;;;;;;;;;;1031536;28;19929;-75
2024/03/27 02:55:49;;;;;;;;;;;;;;;;;;1031539;28;20031;-76
2024/03/27 02:56:19;;;;;;;;;;;;;;;;;;1033953;28;20023;-75
2024/03/27 02:56:50;;;;;;;;;;;;;;;;;;1032303;28;19913;-75
2024/03/27 02:57:20;;;;;;;;;;;;;;;;;;1031321;28;19944;-76
2024/03/27 02:57:50;;;;;;;;;;;;;;;;;;1033338;28;19959;-77
2024/03/27 02:58:23;;;;;;;;;;;;;;;;;;1036431;28;19917;-77
2024/03/27 02:58:54;;;;;;;;;;;;;;;;;;1034329;28;19913;-75
2024/03/27 02:59:27;;;;;;;;;;;;;;;;;;1032991;28;19968;-77
2024/03/27 02:59:58;;;;;;;;;;;;;;;;;;1030983;28;19917;-76
2024/03/27 03:00:28;;;;;;;;;;;;;;;;;;1002301;28;19917;-75
2024/03/27 03:00:59;;;;;;;;;;;;;;;;;;1027047;28;20001;-75
2024/03/27 03:01:29;;;;;;;;;;;;;;;;;;1024464;28;19914;-76
2024/03/27 03:01:59;;;;;;;;;;;;;;;;;;1030526;28;19924;-76
2024/03/27 03:02:29;;;;;;;;;;;;;;;;;;1029937;28;19924;-76
2024/03/27 03:03:00;;;;;;;;;;;;;;;;;;1035008;28;20371;-75
2024/03/27 03:03:30;;;;;;;;;;;;;;;;;;1039219;28;20727;-76
2024/03/27 03:04:00;;;;;;;;;;;;;;;;;;1035241;28;20671;-76
2024/03/27 03:04:30;;;;;;;;;;;;;;;;;;1032715;28;19952;-76
2024/03/27 03:05:01;;;;;;;;;;;;;;;;;;1035397;28;19913;-75
2024/03/27 03:05:31;;;;;;;;;;;;;;;;;;1034618;28;19923;-74
2024/03/27 03:06:01;;;;;;;;;;;;;;;;;;1040307;28;20370;-76
2024/03/27 03:06:31;;;;;;;;;;;;;;;;;;1038003;28;20031;-75
2024/03/27 03:07:02;;;;;;;;;;;;;;;;;;1035634;28;20225;-75
2024/03/27 03:07:32;;;;;;;;;;;;;;;;;;1034666;28;19941;-75
2024/03/27 03:08:02;;;;;;;;;;;;;;;;;;1036501;28;20006;-75
2024/03/27 03:08:33;;;;;;;;;;;;;;;;;;1033748;28;19913;-75
2024/03/27 03:09:03;;;;;;;;;;;;;;;;;;1035092;28;20007;-76
2024/03/27 03:09:33;;;;;;;;;;;;;;;;;;1036353;28;19940;-75
2024/03/27 03:10:04;;;;;;;;;;;;;;;;;;1033182;28;20450;-75
2024/03/27 03:10:36;;;;;;;;;;;;;;;;;;1034819;28;19917;-76
2024/03/27 03:11:06;;;;;;;;;;;;;;;;;;1037168;28;19934;-75
2024/03/27 03:11:37;;;;;;;;;;;;;;;;;;1032672;28;20331;-75
2024/03/27 03:12:08;;;;;;;;;;;;;;;;;;1032559;28;19920;-75
2024/03/27 03:12:38;;;;;;;;;;;;;;;;;;1034610;28;20451;-77
2024/03/27 03:13:08;;;;;;;;;;;;;;;;;;1033253;28;20387;-77
2024/03/27 03:13:39;;;;;;;;;;;;;;;;;;1035735;28;20217;-74
2024/03/27 03:14:09;;;;;;;;;;;;;;;;;;1036157;28;20003;-76
2024/03/27 03:14:39;;;;;;;;;;;;;;;;;;1035423;28;19920;-75
2024/03/27 03:15:09;;;;;;;;;;;;;;;;;;1038247;28;20248;-75
2024/03/27 03:15:40;;;;;;;;;;;;;;;;;;1040735;28;19924;-75
2024/03/27 03:16:10;;;;;;;;;;;;;;;;;;1038859;28;19963;-75
2024/03/27 03:16:40;;;;;;;;;;;;;;;;;;1040902;28;19912;-75
2024/03/27 03:17:12;;;;;;;;;;;;;;;;;;1039555;28;19968;-75
2024/03/27 03:17:43;;;;;;;;;;;;;;;;;;1039214;28;19932;-75
2024/03/27 03:18:14;;;;;;;;;;;;;;;;;;1038514;28;20026;-74
2024/03/27 03:18:48;;;;;;;;;;;;;;;;;;1037846;28;19971;-75
2024/03/27 03:19:18;;;;;;;;;;;;;;;;;;1035480;28;19936;-75
2024/03/27 03:19:48;;;;;;;;;;;;;;;;;;1035842;28;20482;-75
2024/03/27 03:20:19;;;;;;;;;;;;;;;;;;1035541;28;19917;-75
2024/03/27 03:20:52;;;;;;;;;;;;;;;;;;1034641;28;20432;-75
2024/03/27 03:21:23;;;;;;;;;;;;;;;;;;1033104;28;20429;-76
2024/03/27 03:21:53;;;;;;;;;;;;;;;;;;1036350;28;19925;-75
2024/03/27 03:22:23;;;;;;;;;;;;;;;;;;1043231;28;20531;-75
2024/03/27 03:22:54;;;;;;;;;;;;;;;;;;1038357;28;20057;-75
2024/03/27 03:23:24;;;;;;;;;;;;;;;;;;1037009;28;19912;-76
2024/03/27 03:23:55;;;;;;;;;;;;;;;;;;1039948;28;19924;-75
2024/03/27 03:24:25;;;;;;;;;;;;;;;;;;1035290;28;19909;-75
2024/03/27 03:24:56;;;;;;;;;;;;;;;;;;1039936;28;19903;-76
2024/03/27 03:25:26;;;;;;;;;;;;;;;;;;1040580;28;19909;-75
2024/03/27 03:26:01;;;;;;;;;;;;;;;;;;1039210;28;19920;-74
2024/03/27 03:26:31;;;;;;;;;;;;;;;;;;1042131;28;20736;-75
2024/03/27 03:27:01;;;;;;;;;;;;;;;;;;1040815;28;19924;-76
2024/03/27 03:27:32;;;;;;;;;;;;;;;;;;1037148;28;19905;-75